createdAt,value
2023-03-08T00:01:12.342Z,99014.50
2023-03-08T00:03:39.523Z,99020.28
2023-03-08T00:06:12.152Z,99016.75
2023-03-08T00:08:39.015Z,99013.13
2023-03-08T00:11:10.638Z,99026.03
2023-03-08T00:13:37.332Z,99025.53
2023-03-08T00:16:06.748Z,99018.25
2023-03-08T00:18:35.371Z,99022.94
2023-03-08T00:21:10.260Z,99017.34
2023-03-08T00:23:36.921Z,99013.44
2023-03-08T00:26:03.950Z,99017.50
2023-03-08T00:28:31.075Z,99013.72
2023-03-08T00:31:05.028Z,99009.91
2023-03-08T00:33:33.117Z,99012.28
2023-03-08T00:36:03.034Z,99021.75
2023-03-08T00:38:31.660Z,99014.53
2023-03-08T00:40:58.776Z,99012.22
2023-03-08T00:43:26.124Z,99017.22
2023-03-08T00:45:53.227Z,99017.03
2023-03-08T00:48:20.625Z,99010.88
2023-03-08T00:50:47.696Z,98997.97
2023-03-08T00:53:14.291Z,98987.69
2023-03-08T00:55:49.333Z,98994.16
2023-03-08T00:58:16.153Z,98994.25
2023-03-08T01:00:43.097Z,99004.63
2023-03-08T01:03:09.696Z,99008.00
2023-03-08T01:05:44.827Z,98998.38
2023-03-08T01:08:12.509Z,98992.88
2023-03-08T01:10:39.339Z,98993.38
2023-03-08T01:13:07.790Z,98989.63
2023-03-08T01:15:38.209Z,98999.13
2023-03-08T01:18:05.796Z,98998.25
2023-03-08T01:20:32.955Z,99009.38
2023-03-08T01:22:59.529Z,99004.16
2023-03-08T01:25:28.605Z,99010.53
2023-03-08T01:27:55.221Z,99014.25
2023-03-08T01:30:22.261Z,99010.66
2023-03-08T01:32:48.852Z,99021.25
2023-03-08T01:35:15.568Z,99018.84
2023-03-08T01:37:42.208Z,99027.84
2023-03-08T01:40:09.653Z,99034.84
2023-03-08T01:42:38.920Z,99038.34
2023-03-08T01:45:26.718Z,99024.84
2023-03-08T01:47:53.308Z,99035.25
2023-03-08T01:50:20.427Z,99040.00
2023-03-08T01:52:52.543Z,99043.28
2023-03-08T01:55:20.026Z,99049.94
2023-03-08T01:57:51.169Z,99046.72
2023-03-08T02:00:24.176Z,99051.25
2023-03-08T02:03:16.737Z,99049.50
2023-03-08T02:05:44.460Z,99051.25
2023-03-08T02:08:11.129Z,99048.28
2023-03-08T02:10:38.664Z,99051.97
2023-03-08T02:13:07.501Z,99057.53
2023-03-08T02:15:34.471Z,99051.88
2023-03-08T02:18:01.086Z,99057.69
2023-03-08T02:20:34.145Z,99050.84
2023-03-08T02:23:11.670Z,99048.78
2023-03-08T02:25:38.888Z,99046.16
2023-03-08T02:28:06.616Z,99057.88
2023-03-08T02:30:36.983Z,99055.94
2023-03-08T02:33:04.074Z,99066.06
2023-03-08T02:35:30.703Z,99067.78
2023-03-08T02:37:57.240Z,99074.53
2023-03-08T02:40:23.915Z,99078.66
2023-03-08T02:42:53.181Z,99082.75
2023-03-08T02:45:19.945Z,99083.72
2023-03-08T02:47:46.514Z,99089.91
2023-03-08T02:50:13.102Z,99093.75
2023-03-08T02:52:39.677Z,99096.19
2023-03-08T02:55:06.946Z,99107.53
2023-03-08T02:57:33.587Z,99107.06
2023-03-08T03:00:00.142Z,99113.09
2023-03-08T03:02:27.160Z,99109.00
2023-03-08T03:04:53.747Z,99112.38
2023-03-08T03:07:20.324Z,99115.03
2023-03-08T03:09:46.936Z,99120.97
2023-03-08T03:12:13.525Z,99120.97
2023-03-08T03:14:40.224Z,99121.81
2023-03-08T03:17:06.781Z,99124.81
2023-03-08T03:19:33.413Z,99130.13
2023-03-08T03:21:59.997Z,99131.84
2023-03-08T03:24:26.635Z,99137.28
2023-03-08T03:26:53.525Z,99140.06
2023-03-08T03:29:20.405Z,99151.75
2023-03-08T03:31:48.600Z,99155.03
2023-03-08T03:34:15.324Z,99160.94
2023-03-08T03:36:41.952Z,99146.84
2023-03-08T03:39:08.530Z,99147.91
2023-03-08T03:41:35.108Z,99145.38
2023-03-08T03:44:01.660Z,99143.91
2023-03-08T03:46:28.429Z,99137.25
2023-03-08T03:48:55.141Z,99127.94
2023-03-08T03:51:22.615Z,99111.75
2023-03-08T03:53:49.855Z,99099.78
2023-03-08T03:56:19.152Z,99103.03
2023-03-08T03:58:46.149Z,99101.78
2023-03-08T04:01:24.891Z,99106.94
2023-03-08T04:03:52.803Z,99096.88
2023-03-08T04:06:27.462Z,99105.44
2023-03-08T04:08:55.999Z,99113.13
2023-03-08T04:11:26.603Z,99130.00
2023-03-08T04:13:53.494Z,99128.66
2023-03-08T04:16:28.665Z,99130.91
2023-03-08T04:18:58.738Z,99145.97
2023-03-08T04:21:25.866Z,99147.69
2023-03-08T04:23:52.686Z,99157.91
2023-03-08T04:26:20.185Z,99157.91
2023-03-08T04:28:46.945Z,99158.19
2023-03-08T04:31:19.730Z,99161.84
2023-03-08T04:33:47.388Z,99165.88
2023-03-08T04:36:15.726Z,99178.47
2023-03-08T04:38:43.017Z,99175.59
2023-03-08T04:41:12.595Z,99176.44
2023-03-08T04:43:51.254Z,99165.09
2023-03-08T04:46:20.192Z,99174.03
2023-03-08T04:48:47.187Z,99171.72
2023-03-08T04:51:16.078Z,99175.72
2023-03-08T04:53:44.620Z,99181.22
2023-03-08T04:56:13.050Z,99178.56
2023-03-08T04:58:39.825Z,99170.59
2023-03-08T05:01:15.270Z,99175.31
2023-03-08T05:03:42.184Z,99168.53
2023-03-08T05:06:10.042Z,99168.41
2023-03-08T05:08:36.705Z,99171.06
2023-03-08T05:11:04.771Z,99168.53
2023-03-08T05:13:35.478Z,99170.56
2023-03-08T05:16:03.706Z,99174.16
2023-03-08T05:18:30.394Z,99168.75
2023-03-08T05:21:02.668Z,99168.75
2023-03-08T05:23:29.530Z,99175.75
2023-03-08T05:26:00.709Z,99172.38
2023-03-08T05:28:29.766Z,99185.66
2023-03-08T05:31:07.036Z,99185.84
2023-03-08T05:33:34.792Z,99193.09
2023-03-08T05:36:01.518Z,99200.09
2023-03-08T05:38:28.903Z,99194.78
2023-03-08T05:40:55.765Z,99213.97
2023-03-08T05:43:22.354Z,99211.31
2023-03-08T05:46:11.272Z,99223.44
2023-03-08T05:48:38.105Z,99233.72
2023-03-08T05:51:09.882Z,99222.88
2023-03-08T05:53:37.116Z,99230.75
2023-03-08T05:56:23.462Z,99235.81
2023-03-08T05:58:50.962Z,99224.84
2023-03-08T06:01:22.813Z,99241.28
2023-03-08T06:03:51.621Z,99247.97
2023-03-08T06:06:20.338Z,99244.75
2023-03-08T06:08:47.340Z,99244.31
2023-03-08T06:11:15.717Z,99243.84
2023-03-08T06:13:42.318Z,99255.59
2023-03-08T06:16:09.360Z,99251.63
2023-03-08T06:18:37.452Z,99262.16
2023-03-08T06:21:06.620Z,99262.97
2023-03-08T06:23:35.209Z,99259.03
2023-03-08T06:26:02.452Z,99270.06
2023-03-08T06:28:29.656Z,99268.63
2023-03-08T06:30:56.656Z,99275.06
2023-03-08T06:33:26.045Z,99259.25
2023-03-08T06:36:07.185Z,99274.53
2023-03-08T06:38:36.681Z,99276.34
2023-03-08T06:41:04.686Z,99279.84
2023-03-08T06:43:31.728Z,99281.94
2023-03-08T06:45:58.564Z,99285.69
2023-03-08T06:48:25.117Z,99285.09
2023-03-08T06:50:51.652Z,99292.59
2023-03-08T06:53:18.256Z,99292.25
2023-03-08T06:55:44.860Z,99287.50
2023-03-08T06:58:11.454Z,99286.56
2023-03-08T07:00:38.068Z,99304.94
2023-03-08T07:03:04.985Z,99291.41
2023-03-08T07:05:31.718Z,99309.69
2023-03-08T07:07:58.645Z,99305.66
2023-03-08T07:10:25.192Z,99304.47
2023-03-08T07:12:51.804Z,99308.59
2023-03-08T07:15:21.407Z,99311.63
2023-03-08T07:17:50.431Z,99321.91
2023-03-08T07:20:19.921Z,99323.81
2023-03-08T07:22:47.021Z,99329.63
2023-03-08T07:25:15.627Z,99328.91
2023-03-08T07:27:42.890Z,99329.00
2023-03-08T07:30:11.809Z,99332.63
2023-03-08T07:32:42.973Z,99324.69
2023-03-08T07:35:11.894Z,99331.97
2023-03-08T07:37:38.800Z,99330.09
2023-03-08T07:40:06.162Z,99329.94
2023-03-08T07:42:32.848Z,99334.47
2023-03-08T07:44:59.477Z,99343.28
2023-03-08T07:47:26.063Z,99348.56
2023-03-08T07:49:52.689Z,99350.59
2023-03-08T07:52:19.309Z,99358.78
2023-03-08T07:54:45.920Z,99353.91
2023-03-08T07:57:15.866Z,99360.53
2023-03-08T07:59:42.708Z,99365.63
2023-03-08T08:02:13.772Z,99370.31
2023-03-08T08:04:41.128Z,99377.06
2023-03-08T08:07:12.098Z,99381.19
2023-03-08T08:09:38.785Z,99373.63
2023-03-08T08:12:05.925Z,99382.09
2023-03-08T08:14:32.699Z,99371.72
2023-03-08T08:16:59.299Z,99368.56
2023-03-08T08:19:26.036Z,99379.53
2023-03-08T08:21:52.698Z,99375.34
2023-03-08T08:24:19.350Z,99381.88
2023-03-08T08:26:45.915Z,99375.13
2023-03-08T08:29:13.189Z,99380.78
2023-03-08T08:31:39.870Z,99381.94
2023-03-08T08:34:06.574Z,99380.53
2023-03-08T08:36:33.158Z,99372.69
2023-03-08T08:38:59.720Z,99375.38
2023-03-08T08:41:28.040Z,99369.06
2023-03-08T08:43:58.943Z,99371.78
2023-03-08T08:46:27.880Z,99375.84
2023-03-08T08:48:55.829Z,99364.88
2023-03-08T08:51:22.692Z,99367.25
2023-03-08T08:53:49.314Z,99364.00
2023-03-08T08:56:29.069Z,99366.13
2023-03-08T08:59:01.623Z,99360.81
2023-03-08T09:01:33.380Z,99353.03
2023-03-08T09:04:00.234Z,99353.03
2023-03-08T09:06:28.104Z,99350.50
2023-03-08T09:08:57.036Z,99343.28
2023-03-08T09:11:25.180Z,99346.22
2023-03-08T09:13:52.494Z,99350.72
2023-03-08T09:16:26.567Z,99341.97
2023-03-08T09:18:53.410Z,99340.38
2023-03-08T09:21:20.284Z,99348.97
2023-03-08T09:23:46.947Z,99354.34
2023-03-08T09:26:13.717Z,99352.34
2023-03-08T09:28:40.604Z,99348.13
2023-03-08T09:31:15.170Z,99339.47
2023-03-08T09:33:54.156Z,99337.16
2023-03-08T09:36:21.453Z,99342.41
2023-03-08T09:38:49.525Z,99336.41
2023-03-08T09:41:37.141Z,99330.38
2023-03-08T09:44:28.256Z,99333.38
2023-03-08T09:47:13.748Z,99335.84
2023-03-08T09:49:43.721Z,99332.59
2023-03-08T09:52:22.555Z,99330.91
2023-03-08T09:54:51.230Z,99335.22
2023-03-08T09:57:25.224Z,99333.81
2023-03-08T09:59:57.664Z,99333.25
2023-03-08T10:02:30.311Z,99324.88
2023-03-08T10:05:23.864Z,99323.25
2023-03-08T10:08:01.056Z,99324.25
2023-03-08T10:10:40.650Z,99325.38
2023-03-08T10:13:32.638Z,99319.41
2023-03-08T10:16:16.439Z,99330.22
2023-03-08T10:18:51.507Z,99321.97
2023-03-08T10:21:22.570Z,99316.97
2023-03-08T10:24:02.424Z,99319.38
2023-03-08T10:26:31.548Z,99317.63
2023-03-08T10:28:58.142Z,99325.13
2023-03-08T10:31:28.191Z,99327.44
2023-03-08T10:34:06.955Z,99321.50
2023-03-08T10:36:33.521Z,99317.72
2023-03-08T10:39:09.704Z,99329.53
2023-03-08T10:41:52.950Z,99324.50
2023-03-08T10:44:44.713Z,99323.31
2023-03-08T10:47:31.395Z,99321.97
2023-03-08T10:50:19.951Z,99322.13
2023-03-08T10:52:48.560Z,99314.72
2023-03-08T10:55:17.944Z,99311.69
2023-03-08T10:57:50.256Z,99305.63
2023-03-08T11:00:20.047Z,99296.78
2023-03-08T11:02:48.308Z,99293.03
2023-03-08T11:05:26.464Z,99289.91
2023-03-08T11:07:55.116Z,99288.72
2023-03-08T11:10:25.147Z,99288.72
2023-03-08T11:13:17.998Z,99294.41
2023-03-08T11:15:52.893Z,99284.97
2023-03-08T11:18:44.309Z,99278.56
2023-03-08T11:21:20.082Z,99274.56
2023-03-08T11:24:13.846Z,99282.34
2023-03-08T11:26:44.682Z,99277.81
2023-03-08T11:29:31.156Z,99281.56
2023-03-08T11:32:34.899Z,99275.50
2023-03-08T11:35:35.750Z,99274.84
2023-03-08T11:38:21.121Z,99280.19
2023-03-08T11:41:05.967Z,99286.41
2023-03-08T11:44:24.080Z,99277.91
2023-03-08T11:47:08.605Z,99265.50
2023-03-08T11:50:06.131Z,99259.63
2023-03-08T11:53:17.743Z,99260.31
2023-03-08T11:56:09.243Z,99257.13
2023-03-08T11:58:46.610Z,99258.31
2023-03-08T12:01:32.633Z,99248.56
2023-03-08T12:04:06.616Z,99248.56
2023-03-08T12:06:41.876Z,99243.03
2023-03-08T12:09:34.488Z,99237.28
2023-03-08T12:12:14.690Z,99246.69
2023-03-08T12:15:07.684Z,99243.69
2023-03-08T12:17:44.299Z,99248.72
2023-03-08T12:20:20.142Z,99231.88
2023-03-08T12:23:04.289Z,99237.53
2023-03-08T12:25:34.820Z,99238.50
2023-03-08T12:28:24.426Z,99233.09
2023-03-08T12:31:24.797Z,99226.72
2023-03-08T12:33:54.248Z,99225.88
2023-03-08T12:36:24.691Z,99218.47
2023-03-08T12:38:56.653Z,99212.13
2023-03-08T12:41:28.861Z,99214.16
2023-03-08T12:44:07.186Z,99204.72
2023-03-08T12:47:01.915Z,99204.03
2023-03-08T12:49:36.594Z,99193.44
2023-03-08T12:52:23.856Z,99189.94
2023-03-08T12:55:34.883Z,99186.13
2023-03-08T12:58:04.457Z,99173.16
2023-03-08T13:00:35.263Z,99161.72
2023-03-08T13:03:13.198Z,99151.69
2023-03-08T13:05:41.755Z,99140.09
2023-03-08T13:08:14.397Z,99131.81
2023-03-08T13:10:58.545Z,99111.72
2023-03-08T13:13:43.492Z,99100.97
2023-03-08T13:16:16.107Z,99101.22
2023-03-08T13:18:44.979Z,99084.69
2023-03-08T13:21:25.958Z,99077.25
2023-03-08T13:24:34.329Z,99080.97
2023-03-08T13:27:25.126Z,99085.91
2023-03-08T13:29:51.930Z,99072.84
2023-03-08T13:32:21.386Z,99060.31
2023-03-08T13:35:03.586Z,99054.16
2023-03-08T13:37:30.818Z,99053.47
2023-03-08T13:40:00.019Z,99059.41
2023-03-08T13:42:28.815Z,99043.97
2023-03-08T13:45:18.306Z,99036.91
2023-03-08T13:47:47.220Z,99037.25
2023-03-08T13:50:35.294Z,99021.03
2023-03-08T13:53:03.947Z,99022.25
2023-03-08T13:55:44.285Z,99030.47
2023-03-08T13:58:22.188Z,99027.38
2023-03-08T14:01:00.894Z,99032.00
2023-03-08T14:03:30.739Z,99025.22
2023-03-08T14:05:58.150Z,99025.53
2023-03-08T14:08:26.862Z,99027.09
2023-03-08T14:11:05.505Z,99039.44
2023-03-08T14:13:38.274Z,99040.44
2023-03-08T14:16:09.514Z,99041.59
2023-03-08T14:18:38.655Z,99025.66
2023-03-08T14:21:42.446Z,99031.16
2023-03-08T14:24:20.282Z,99025.47
2023-03-08T14:27:22.067Z,99020.41
2023-03-08T14:29:48.792Z,99024.25
2023-03-08T14:32:15.474Z,99017.72
2023-03-08T14:34:45.884Z,99027.16
2023-03-08T14:37:12.420Z,99035.19
2023-03-08T14:39:44.314Z,99036.09
2023-03-08T14:42:24.427Z,99041.19
2023-03-08T14:44:52.765Z,99040.09
2023-03-08T14:47:23.790Z,99037.00
2023-03-08T14:50:01.498Z,99038.97
2023-03-08T14:52:30.721Z,99039.78
2023-03-08T14:54:57.284Z,99039.31
2023-03-08T14:57:26.708Z,99031.28
2023-03-08T14:59:54.001Z,99019.72
2023-03-08T15:02:20.708Z,99019.31
2023-03-08T15:04:47.328Z,99016.63
2023-03-08T15:07:20.407Z,99010.00
2023-03-08T15:09:51.566Z,98999.28
2023-03-08T15:12:18.422Z,98991.06
2023-03-08T15:14:45.164Z,98988.91
2023-03-08T15:17:11.813Z,98993.97
2023-03-08T15:19:38.361Z,98979.47
2023-03-08T15:22:06.289Z,98987.72
2023-03-08T15:24:32.958Z,98977.97
2023-03-08T15:26:59.510Z,98980.66
2023-03-08T15:29:28.814Z,98972.91
2023-03-08T15:31:56.355Z,98972.81
2023-03-08T15:34:23.297Z,98976.88
2023-03-08T15:36:50.937Z,98975.19
2023-03-08T15:39:17.777Z,98957.53
2023-03-08T15:41:44.353Z,98951.84
2023-03-08T15:44:11.089Z,98950.34
2023-03-08T15:46:38.029Z,98955.25
2023-03-08T15:49:05.594Z,98942.13
2023-03-08T15:51:36.681Z,98927.34
2023-03-08T15:54:05.141Z,98929.00
2023-03-08T15:56:31.825Z,98923.47
2023-03-08T15:58:58.431Z,98923.31
2023-03-08T16:01:26.944Z,98918.78
2023-03-08T16:03:57.076Z,98918.09
2023-03-08T16:06:24.616Z,98920.16
2023-03-08T16:08:51.349Z,98924.88
2023-03-08T16:11:22.241Z,98914.94
2023-03-08T16:13:51.204Z,98919.50
2023-03-08T16:16:18.968Z,98910.63
2023-03-08T16:18:45.771Z,98915.00
2023-03-08T16:21:12.481Z,98912.47
2023-03-08T16:23:41.679Z,98915.16
2023-03-08T16:26:17.184Z,98915.88
2023-03-08T16:28:47.057Z,98913.81
2023-03-08T16:31:14.854Z,98907.78
2023-03-08T16:33:41.564Z,98900.41
2023-03-08T16:36:08.298Z,98896.88
2023-03-08T16:38:34.903Z,98900.41
2023-03-08T16:41:12.306Z,98898.75
2023-03-08T16:43:46.408Z,98899.25
2023-03-08T16:46:19.443Z,98907.84
2023-03-08T16:48:49.362Z,98904.50
2023-03-08T16:51:19.026Z,98902.31
2023-03-08T16:53:45.946Z,98895.97
2023-03-08T16:56:24.536Z,98897.63
2023-03-08T16:58:51.995Z,98902.53
2023-03-08T17:01:19.729Z,98904.19
2023-03-08T17:03:46.347Z,98895.28
2023-03-08T17:06:14.358Z,98895.28
2023-03-08T17:08:41.416Z,98896.47
2023-03-08T17:11:20.217Z,98893.28
2023-03-08T17:13:51.332Z,98897.34
2023-03-08T17:16:24.053Z,98895.31
2023-03-08T17:18:51.629Z,98901.03
2023-03-08T17:21:19.788Z,98893.66
2023-03-08T17:23:46.637Z,98890.63
2023-03-08T17:26:14.743Z,98887.47
2023-03-08T17:28:41.758Z,98882.09
2023-03-08T17:31:11.048Z,98897.25
2023-03-08T17:33:38.338Z,98887.31
2023-03-08T17:36:06.847Z,98901.94
2023-03-08T17:38:34.208Z,98895.38
2023-03-08T17:41:05.567Z,98894.72
2023-03-08T17:43:32.186Z,98903.09
2023-03-08T17:45:59.629Z,98897.06
2023-03-08T17:48:26.266Z,98891.50
2023-03-08T17:50:52.933Z,98892.03
2023-03-08T17:53:19.845Z,98893.34
2023-03-08T17:55:46.471Z,98896.22
2023-03-08T17:58:13.050Z,98885.44
2023-03-08T18:00:39.620Z,98888.13
2023-03-08T18:03:06.209Z,98888.34
2023-03-08T18:05:32.858Z,98875.38
2023-03-08T18:07:59.433Z,98871.53
2023-03-08T18:10:26.016Z,98864.94
2023-03-08T18:12:52.749Z,98873.19
2023-03-08T18:15:19.305Z,98875.06
2023-03-08T18:17:46.383Z,98887.16
2023-03-08T18:20:13.199Z,98874.72
2023-03-08T18:22:40.807Z,98888.34
2023-03-08T18:25:07.855Z,98881.28
2023-03-08T18:27:34.381Z,98876.44
2023-03-08T18:30:00.925Z,98864.66
2023-03-08T18:32:28.716Z,98863.53
2023-03-08T18:34:55.348Z,98878.81
2023-03-08T18:37:23.277Z,98862.34
2023-03-08T18:39:54.552Z,98854.78
2023-03-08T18:42:21.217Z,98859.84
2023-03-08T18:44:48.169Z,98848.94
2023-03-08T18:47:15.113Z,98851.28
2023-03-08T18:49:43.458Z,98849.44
2023-03-08T18:52:11.089Z,98856.81
2023-03-08T18:54:41.326Z,98853.00
2023-03-08T18:57:08.013Z,98847.25
2023-03-08T18:59:35.091Z,98844.75
2023-03-08T19:02:01.782Z,98845.78
2023-03-08T19:04:28.458Z,98834.16
2023-03-08T19:06:55.050Z,98844.25
2023-03-08T19:09:24.392Z,98836.38
2023-03-08T19:11:51.071Z,98837.88
2023-03-08T19:14:17.840Z,98837.56
2023-03-08T19:16:44.615Z,98832.53
2023-03-08T19:19:14.525Z,98830.69
2023-03-08T19:21:44.050Z,98825.81
2023-03-08T19:24:18.606Z,98825.47
2023-03-08T19:26:47.555Z,98822.13
2023-03-08T19:29:17.531Z,98832.53
2023-03-08T19:31:55.463Z,98829.84
2023-03-08T19:34:35.365Z,98835.72
2023-03-08T19:37:02.664Z,98835.88
2023-03-08T19:39:31.660Z,98838.72
2023-03-08T19:42:00.749Z,98843.41
2023-03-08T19:44:28.099Z,98840.88
2023-03-08T19:46:55.315Z,98848.59
2023-03-08T19:49:25.073Z,98838.16
2023-03-08T19:51:54.690Z,98844.03
2023-03-08T19:54:23.381Z,98842.66
2023-03-08T19:56:51.393Z,98830.91
2023-03-08T19:59:18.068Z,98827.00
2023-03-08T20:01:45.146Z,98819.44
2023-03-08T20:04:12.575Z,98811.38
2023-03-08T20:06:43.537Z,98822.41
2023-03-08T20:09:13.956Z,98824.72
2023-03-08T20:11:41.138Z,98836.91
2023-03-08T20:14:08.504Z,98835.06
2023-03-08T20:16:35.899Z,98850.16
2023-03-08T20:19:02.589Z,98847.97
2023-03-08T20:21:30.957Z,98845.31
2023-03-08T20:23:59.573Z,98850.38
2023-03-08T20:26:31.788Z,98849.22
2023-03-08T20:28:59.893Z,98848.03
2023-03-08T20:31:28.285Z,98845.88
2023-03-08T20:33:55.185Z,98837.34
2023-03-08T20:36:21.831Z,98832.97
2023-03-08T20:38:48.476Z,98825.09
2023-03-08T20:41:20.820Z,98817.13
2023-03-08T20:43:49.402Z,98829.75
2023-03-08T20:46:19.123Z,98822.00
2023-03-08T20:48:46.313Z,98829.22
2023-03-08T20:51:16.219Z,98832.59
2023-03-08T20:53:43.678Z,98829.75
2023-03-08T20:56:13.541Z,98821.41
2023-03-08T20:58:40.634Z,98819.88
2023-03-08T21:01:15.247Z,98821.03
2023-03-08T21:03:41.733Z,98831.41
2023-03-08T21:06:13.452Z,98829.38
2023-03-08T21:08:40.748Z,98823.69
2023-03-08T21:11:07.929Z,98812.50
2023-03-08T21:13:34.630Z,98818.38
2023-03-08T21:16:06.352Z,98821.22
2023-03-08T21:18:33.015Z,98820.41
2023-03-08T21:20:59.912Z,98815.03
2023-03-08T21:23:27.130Z,98815.19
2023-03-08T21:25:54.046Z,98815.19
2023-03-08T21:28:21.695Z,98817.72
2023-03-08T21:30:49.049Z,98802.31
2023-03-08T21:33:16.033Z,98795.75
2023-03-08T21:35:42.865Z,98801.25
2023-03-08T21:38:09.973Z,98797.75
2023-03-08T21:40:38.698Z,98795.06
2023-03-08T21:43:05.611Z,98787.69
2023-03-08T21:45:32.527Z,98796.41
2023-03-08T21:47:59.677Z,98785.16
2023-03-08T21:50:26.740Z,98768.41
2023-03-08T21:52:53.302Z,98767.91
2023-03-08T21:55:19.869Z,98765.22
2023-03-08T21:57:47.401Z,98753.66
2023-03-08T22:00:16.769Z,98754.84
2023-03-08T22:02:45.990Z,98753.63
2023-03-08T22:05:14.004Z,98752.47
2023-03-08T22:07:40.841Z,98745.94
2023-03-08T22:10:09.840Z,98749.63
2023-03-08T22:12:36.588Z,98750.63
2023-03-08T22:15:04.473Z,98747.25
2023-03-08T22:17:31.281Z,98739.56
2023-03-08T22:19:57.829Z,98737.72
2023-03-08T22:22:24.413Z,98739.56
2023-03-08T22:24:51.017Z,98736.22
2023-03-08T22:27:18.191Z,98743.94
2023-03-08T22:29:44.745Z,98746.44
2023-03-08T22:32:11.544Z,98754.16
2023-03-08T22:34:38.123Z,98749.97
2023-03-08T22:37:06.205Z,98748.78
2023-03-08T22:39:32.831Z,98747.28
2023-03-08T22:41:59.425Z,98753.00
2023-03-08T22:44:26.007Z,98762.56
2023-03-08T22:46:52.662Z,98753.19
2023-03-08T22:49:19.265Z,98766.75
2023-03-08T22:51:45.870Z,98773.63
2023-03-08T22:54:16.610Z,98762.38
2023-03-08T22:56:43.205Z,98764.22
2023-03-08T22:59:10.192Z,98766.09
2023-03-08T23:01:37.119Z,98765.06
2023-03-08T23:04:05.412Z,98773.78
2023-03-08T23:06:33.379Z,98768.09
2023-03-08T23:09:04.433Z,98769.44
2023-03-08T23:11:31.170Z,98766.59
2023-03-08T23:13:57.845Z,98761.22
2023-03-08T23:16:24.514Z,98754.50
2023-03-08T23:18:52.904Z,98759.34
2023-03-08T23:21:21.713Z,98750.78
2023-03-08T23:23:48.822Z,98744.75
2023-03-08T23:26:24.508Z,98747.78
2023-03-08T23:28:51.067Z,98748.94
2023-03-08T23:31:19.945Z,98760.03
2023-03-08T23:33:47.183Z,98746.78
2023-03-08T23:36:15.945Z,98755.19
2023-03-08T23:38:43.181Z,98752.50
2023-03-08T23:41:11.955Z,98765.06
2023-03-08T23:43:38.999Z,98754.16
2023-03-08T23:46:14.505Z,98741.75
2023-03-08T23:48:41.730Z,98749.31
2023-03-08T23:51:11.561Z,98734.19
2023-03-08T23:53:38.235Z,98736.88
2023-03-08T23:56:05.897Z,98732.53
2023-03-08T23:58:33.230Z,98723.81
